Schenectady, NY (12008)

2:46 AM EDT on July 25, 2016 (GMT -0400)
GE Volunteers | | Change Station

Elev 350 ft 42.83 °N, 73.88 °W | Updated 2 seconds ago

Mostly Cloudy
Mostly Cloudy
64.6 °F
Feels Like 64.6 °F
N
0.0
Wind Variable Wind from ENE
Gusts 0.0 mph

Today
High -- | Low -- °F
--% Chance of Precip.
Yesterday
High -- | Low -- °F
Precip. -- in
Pressure 29.94 in
Visibility 10.0 miles
Clouds Few 18000 ft
Scattered Clouds 22000 ft
Mostly Cloudy 24000 ft
Dew Point 61 °F
Humidity 88%
Rainfall 0.00 in
Snow Depth Not available.
5:40 AM 8:23 PM
Waning Gibbous, 69% visible
METAR KALB 250551Z 00000KT 10SM FEW180 SCT220 BKN240 21/17 A2994 RMK AO2 SLP139 T02060167 10278 20194 58010
Pressure 29.94 in
Visibility 10.0 miles
Clouds Few 18000 ft
Scattered Clouds 22000 ft
Mostly Cloudy 24000 ft
Dew Point 61 °F
Humidity 88%
Rainfall 0.00 in
Snow Depth Not available.
5:40 AM 8:23 PM
Waning Gibbous, 69% visible
METAR KALB 250551Z 00000KT 10SM FEW180 SCT220 BKN240 21/17 A2994 RMK AO2 SLP139 T02060167 10278 20194 58010

10-Day Weather Forecast

Almanac

Astronomy

Jul. 25, 2016 Rise Set
Actual Time
Civil Twilight
Nautical Twilight
Astronomical Twilight
Moon
Length of Visible Light
Length of Day
Tomorrow will be .
, % of the Moon is Illuminated

Today's Extremes

State Highs State Lows

Community

WunderPhotos

Upload Photos

1,927,275 photos uploaded!

WunderBlog® & News

Nearby

Air Quality

  Air Quality AQ Index Pollutant
Not available.

Snow Depth

Station Depth Elevation

Earthquake Activity

City Distance Mag. Time & Date
Minimum magnitude displayed is 2.5.

Coastal Water Temperatures

Place Temperature

Stations

Nearby Weather Stations

Station Location Temp. Windchill Dew Point Humidity Wind Precip. Elev Updated Type
                   

Watches & Warnings

There are currently no watches in effect.